createdAt,value
2018-01-25T00:01:11.214Z,5.00
2018-01-25T00:06:40.049Z,2.00
2018-01-25T00:09:11.031Z,3.00
2018-01-25T00:11:43.198Z,3.75
2018-01-25T00:14:19.634Z,3.50
2018-01-25T00:16:51.050Z,2.00
2018-01-25T00:19:21.627Z,2.50
2018-01-25T00:21:52.801Z,3.75
2018-01-25T00:24:23.952Z,3.75
2018-01-25T00:26:56.707Z,4.25
2018-01-25T00:29:27.417Z,4.00
2018-01-25T00:31:58.030Z,3.75
2018-01-25T00:34:29.190Z,5.00
2018-01-25T00:37:01.863Z,4.75
2018-01-25T00:39:33.933Z,3.75
2018-01-25T00:42:04.496Z,8.25
2018-01-25T00:44:38.127Z,4.00
2018-01-25T00:47:08.767Z,1.50
2018-01-25T00:49:39.863Z,2.00
2018-01-25T00:52:11.491Z,1.25
2018-01-25T00:54:42.597Z,2.00
2018-01-25T00:57:13.938Z,2.00
2018-01-25T00:59:45.733Z,2.00
2018-01-25T01:02:17.441Z,2.00
2018-01-25T01:04:55.642Z,2.00
2018-01-25T01:07:27.618Z,2.00
2018-01-25T01:09:58.721Z,2.00
2018-01-25T01:12:31.429Z,2.00
2018-01-25T01:15:05.031Z,1.00
2018-01-25T01:17:35.917Z,1.00
2018-01-25T01:20:05.946Z,1.00
2018-01-25T01:22:37.732Z,1.00
2018-01-25T01:25:08.213Z,1.00
2018-01-25T01:27:39.164Z,2.00
2018-01-25T01:30:10.242Z,1.75
2018-01-25T01:32:43.578Z,2.00
2018-01-25T01:35:14.302Z,1.00
2018-01-25T01:37:45.612Z,1.00
2018-01-25T01:40:22.134Z,1.75
2018-01-25T01:42:53.315Z,2.00
2018-01-25T01:45:24.941Z,2.00
2018-01-25T01:47:55.708Z,1.00
2018-01-25T01:50:26.913Z,2.00
2018-01-25T01:52:58.673Z,1.50
2018-01-25T01:55:29.962Z,2.00
2018-01-25T01:58:00.455Z,2.00
2018-01-25T02:00:31.295Z,2.00
2018-01-25T02:03:02.251Z,4.00
2018-01-25T02:05:33.024Z,3.25
2018-01-25T02:08:03.715Z,4.00
2018-01-25T02:10:34.768Z,4.00
2018-01-25T02:13:05.747Z,5.00
2018-01-25T02:21:08.768Z,8.00
2018-01-25T02:23:39.457Z,7.00
2018-01-25T02:26:09.849Z,7.25
2018-01-25T02:28:40.851Z,9.75
2018-01-25T02:31:12.292Z,10.00
2018-01-25T02:33:42.535Z,15.50
2018-01-25T02:36:13.547Z,13.00
2018-01-25T02:38:45.481Z,7.50
2018-01-25T02:41:16.294Z,12.00
2018-01-25T02:43:48.141Z,10.50
2018-01-25T02:49:22.847Z,3.75
2018-01-25T02:51:53.780Z,3.50
2018-01-25T02:54:24.007Z,7.25
2018-01-25T02:57:04.429Z,2.00
2018-01-25T02:59:35.156Z,1.50
2018-01-25T03:02:05.440Z,4.75
2018-01-25T03:04:36.140Z,2.25
2018-01-25T03:07:06.368Z,2.00
2018-01-25T03:09:37.651Z,1.75
2018-01-25T03:12:09.675Z,1.50
2018-01-25T03:14:40.582Z,2.00
2018-01-25T03:17:11.603Z,2.75
2018-01-25T03:19:43.819Z,1.00
2018-01-25T03:22:16.276Z,2.25
2018-01-25T03:24:48.148Z,1.25
2018-01-25T03:40:13.048Z,1.00
2018-01-25T03:42:44.195Z,1.00
2018-01-25T03:45:19.911Z,1.00
2018-01-25T03:47:50.875Z,1.00
2018-01-25T03:50:32.368Z,2.00
2018-01-25T03:53:02.642Z,1.25
2018-01-25T03:55:34.346Z,2.00
2018-01-25T03:58:04.577Z,1.75
2018-01-25T04:00:35.810Z,1.00
2018-01-25T04:03:06.481Z,1.00
2018-01-25T04:05:36.702Z,2.00
2018-01-25T04:08:07.021Z,2.00
2018-01-25T04:10:37.666Z,2.00
2018-01-25T04:13:08.597Z,1.25
2018-01-25T04:15:39.907Z,1.00
2018-01-25T04:18:10.209Z,1.00
2018-01-25T04:20:41.842Z,2.00
2018-01-25T04:23:12.622Z,2.00
2018-01-25T04:25:42.817Z,2.00
2018-01-25T04:28:13.075Z,1.00
2018-01-25T04:30:44.506Z,1.50
2018-01-25T04:33:14.822Z,1.25
2018-01-25T04:35:45.023Z,1.50
2018-01-25T04:38:15.568Z,2.00
2018-01-25T04:40:46.212Z,1.00
2018-01-25T04:43:17.087Z,1.25
2018-01-25T04:45:48.511Z,3.75
2018-01-25T04:48:19.264Z,2.25
2018-01-25T04:50:50.836Z,2.00
2018-01-25T04:53:21.110Z,1.75
2018-01-25T04:55:51.862Z,1.00
2018-01-25T05:01:01.156Z,4.00
2018-01-25T05:03:31.844Z,1.00
2018-01-25T05:06:03.097Z,1.75
2018-01-25T05:08:33.396Z,1.00
2018-01-25T05:11:03.588Z,2.00
2018-01-25T05:13:34.185Z,2.00
2018-01-25T05:16:05.458Z,1.00
2018-01-25T05:18:36.562Z,1.00
2018-01-25T05:21:06.888Z,1.25
2018-01-25T05:23:38.030Z,1.00
2018-01-25T05:26:09.161Z,1.00
2018-01-25T05:28:40.420Z,1.00
2018-01-25T05:31:11.308Z,2.00
2018-01-25T05:33:42.010Z,2.00
2018-01-25T05:36:13.439Z,1.00
2018-01-25T05:38:44.349Z,1.00
2018-01-25T05:41:14.783Z,2.00
2018-01-25T05:43:45.971Z,1.00
2018-01-25T05:46:16.941Z,5.00
2018-01-25T05:48:47.613Z,2.00
2018-01-25T05:51:18.433Z,4.25
2018-01-25T05:53:49.119Z,1.00
2018-01-25T05:56:19.660Z,1.75
2018-01-25T05:58:49.828Z,4.00
2018-01-25T06:01:20.690Z,4.00
2018-01-25T06:03:51.130Z,4.75
2018-01-25T06:06:21.678Z,3.50
2018-01-25T06:08:52.659Z,5.00
2018-01-25T06:11:23.853Z,4.50
2018-01-25T06:14:05.291Z,4.00
2018-01-25T06:16:45.447Z,3.00
2018-01-25T06:19:16.060Z,2.00
2018-01-25T06:21:46.238Z,3.75
2018-01-25T06:24:16.660Z,3.75
2018-01-25T06:26:47.444Z,4.00
2018-01-25T06:29:19.574Z,1.75
2018-01-25T06:31:50.257Z,4.25
2018-01-25T06:34:21.209Z,4.00
2018-01-25T06:36:51.939Z,5.50
2018-01-25T06:39:23.251Z,4.00
2018-01-25T06:41:54.164Z,4.25
2018-01-25T06:44:24.898Z,4.00
2018-01-25T06:46:59.899Z,4.00
2018-01-25T06:49:30.542Z,5.75
2018-01-25T06:52:00.673Z,6.50
2018-01-25T06:54:31.731Z,7.75
2018-01-25T06:57:03.825Z,5.00
2018-01-25T07:02:45.149Z,5.75
2018-01-25T07:08:23.429Z,7.50
2018-01-25T07:10:57.165Z,6.50
2018-01-25T07:13:32.400Z,4.00
2018-01-25T07:16:03.645Z,4.00
2018-01-25T07:18:35.604Z,3.50
2018-01-25T07:21:06.653Z,4.00
2018-01-25T07:23:37.330Z,5.00
2018-01-25T07:26:27.510Z,5.75
2018-01-25T07:28:59.439Z,5.00
2018-01-25T07:31:31.623Z,4.75
2018-01-25T07:34:19.594Z,6.25
2018-01-25T07:36:52.774Z,5.75
2018-01-25T07:39:23.825Z,5.25
2018-01-25T07:41:56.929Z,5.00
2018-01-25T07:44:28.343Z,5.75
2018-01-25T07:47:00.970Z,7.50
2018-01-25T07:49:31.993Z,5.00
2018-01-25T07:52:02.693Z,8.25
2018-01-25T07:54:35.146Z,6.75
2018-01-25T07:57:07.211Z,9.50
2018-01-25T07:59:39.050Z,7.25
2018-01-25T08:02:10.461Z,7.00
2018-01-25T08:04:41.986Z,7.00
2018-01-25T08:07:14.501Z,7.25
2018-01-25T08:09:45.203Z,8.75
2018-01-25T08:12:15.949Z,8.00
2018-01-25T08:14:49.152Z,10.25
2018-01-25T08:17:20.878Z,7.50
2018-01-25T08:19:52.617Z,11.00
2018-01-25T08:22:23.412Z,8.75
2018-01-25T08:24:54.152Z,8.75
2018-01-25T08:27:26.501Z,9.75
2018-01-25T08:30:04.868Z,12.75
2018-01-25T08:32:35.828Z,12.00
2018-01-25T08:35:06.324Z,10.00
2018-01-25T08:37:38.012Z,11.75
2018-01-25T08:40:13.725Z,13.25
2018-01-25T08:42:44.694Z,11.00
2018-01-25T08:45:17.153Z,13.00
2018-01-25T08:48:00.431Z,12.25
2018-01-25T08:50:44.003Z,9.25
2018-01-25T08:53:17.858Z,11.75
2018-01-25T08:55:49.391Z,10.00
2018-01-25T08:58:20.226Z,10.25
2018-01-25T09:00:50.784Z,10.75
2018-01-25T09:03:21.121Z,11.00
2018-01-25T09:05:52.389Z,12.00
2018-01-25T09:08:22.970Z,10.75
2018-01-25T09:13:44.160Z,10.25
2018-01-25T09:16:17.921Z,7.25
2018-01-25T09:18:53.660Z,11.00
2018-01-25T09:21:37.299Z,11.25
2018-01-25T09:24:11.982Z,10.00
2018-01-25T09:26:42.808Z,11.25
2018-01-25T09:29:13.599Z,10.00
2018-01-25T09:31:45.115Z,10.25
2018-01-25T09:34:15.978Z,10.25
2018-01-25T09:36:48.091Z,10.00
2018-01-25T09:39:18.158Z,10.00
2018-01-25T09:42:01.828Z,13.50
2018-01-25T09:44:33.341Z,12.25
2018-01-25T09:47:05.060Z,14.00
2018-01-25T09:49:35.419Z,10.00
2018-01-25T09:52:06.247Z,15.25
2018-01-25T09:54:37.816Z,15.75
2018-01-25T09:57:07.805Z,15.75
2018-01-25T09:59:38.905Z,17.00
2018-01-25T10:02:12.377Z,12.25
2018-01-25T10:04:43.540Z,13.25
2018-01-25T10:07:26.933Z,16.25
2018-01-25T10:09:59.375Z,15.50
2018-01-25T10:12:34.166Z,13.25
2018-01-25T10:17:47.396Z,18.50
2018-01-25T10:20:17.585Z,13.50
2018-01-25T10:22:48.845Z,14.75
2018-01-25T10:25:19.227Z,12.75
2018-01-25T10:27:49.458Z,14.75
2018-01-25T10:30:29.678Z,14.00
2018-01-25T10:33:00.086Z,11.00
2018-01-25T10:35:31.888Z,11.50
2018-01-25T10:38:03.540Z,14.00
2018-01-25T10:40:33.952Z,11.50
2018-01-25T10:43:11.344Z,11.00
2018-01-25T10:45:43.244Z,14.00
2018-01-25T10:48:13.527Z,13.25
2018-01-25T10:50:43.951Z,12.25
2018-01-25T10:53:14.623Z,11.50
2018-01-25T10:55:44.945Z,12.50
2018-01-25T10:58:15.347Z,10.25
2018-01-25T11:00:50.022Z,11.25
2018-01-25T11:03:21.117Z,10.00
2018-01-25T11:05:52.269Z,10.25
2018-01-25T11:08:23.872Z,11.50
2018-01-25T11:10:54.717Z,16.75
2018-01-25T11:13:41.876Z,12.00
2018-01-25T11:16:16.219Z,11.00
2018-01-25T11:18:49.198Z,13.00
2018-01-25T11:21:21.065Z,12.25
2018-01-25T11:23:52.095Z,9.25
2018-01-25T11:26:23.298Z,12.00
2018-01-25T11:28:54.024Z,12.00
2018-01-25T11:31:26.240Z,10.25
2018-01-25T11:33:59.667Z,12.25
2018-01-25T11:36:30.303Z,13.00
2018-01-25T11:39:03.117Z,11.75
2018-01-25T11:41:33.784Z,9.75
2018-01-25T11:44:05.419Z,7.50
2018-01-25T11:46:37.121Z,12.00
2018-01-25T11:49:08.437Z,8.50
2018-01-25T11:51:39.777Z,7.25
2018-01-25T11:54:10.237Z,11.75
2018-01-25T11:56:42.106Z,8.75
2018-01-25T11:59:13.215Z,8.00
2018-01-25T12:01:44.666Z,8.00
2018-01-25T12:04:16.291Z,11.00
2018-01-25T12:06:46.852Z,14.75
2018-01-25T12:09:17.638Z,6.25
2018-01-25T12:11:49.018Z,5.25
2018-01-25T12:14:22.759Z,6.00
2018-01-25T12:16:53.837Z,7.50
2018-01-25T12:19:30.238Z,6.00
2018-01-25T12:22:08.250Z,5.50
2018-01-25T12:24:39.411Z,8.25
2018-01-25T12:27:12.156Z,9.00
2018-01-25T12:29:45.132Z,7.75
2018-01-25T12:32:16.253Z,7.75
2018-01-25T12:34:56.995Z,6.00
2018-01-25T12:37:32.321Z,5.75
2018-01-25T12:40:03.429Z,6.00
2018-01-25T12:42:34.056Z,6.00
2018-01-25T12:45:07.998Z,6.00
2018-01-25T12:47:44.490Z,5.75
2018-01-25T12:50:16.070Z,7.75
2018-01-25T12:52:47.753Z,7.75
2018-01-25T12:55:18.403Z,7.75
2018-01-25T12:57:48.926Z,8.50
2018-01-25T13:00:23.629Z,6.00
2018-01-25T13:02:54.624Z,6.25
2018-01-25T13:05:25.990Z,9.50
2018-01-25T13:07:56.474Z,6.00
2018-01-25T13:10:29.691Z,6.00
2018-01-25T13:13:01.768Z,9.00
2018-01-25T13:15:32.894Z,6.50
2018-01-25T13:18:03.760Z,5.00
2018-01-25T13:20:34.352Z,5.50
2018-01-25T13:23:04.739Z,7.00
2018-01-25T13:25:35.748Z,5.50
2018-01-25T13:28:10.632Z,10.75
2018-01-25T13:30:43.137Z,5.50
2018-01-25T13:33:17.872Z,9.00
2018-01-25T13:35:49.799Z,8.75
2018-01-25T13:38:21.331Z,6.25
2018-01-25T13:40:52.369Z,5.00
2018-01-25T13:43:29.750Z,7.50
2018-01-25T13:46:03.574Z,5.50
2018-01-25T13:48:34.487Z,4.75
2018-01-25T13:51:06.230Z,6.00
2018-01-25T13:53:37.864Z,10.75
2018-01-25T13:56:09.784Z,6.75
2018-01-25T13:58:40.329Z,8.00
2018-01-25T14:01:13.127Z,8.00
2018-01-25T14:03:44.848Z,7.50
2018-01-25T14:06:16.996Z,9.00
2018-01-25T14:08:47.692Z,8.25
2018-01-25T14:11:19.150Z,22.50
2018-01-25T14:13:50.447Z,12.75
2018-01-25T14:16:24.097Z,8.25
2018-01-25T14:18:55.608Z,5.75
2018-01-25T14:21:26.377Z,9.00
2018-01-25T14:23:57.397Z,6.25
2018-01-25T14:26:29.251Z,8.00
2018-01-25T14:29:05.233Z,7.50
2018-01-25T14:31:36.153Z,8.00
2018-01-25T14:34:06.526Z,10.50
2018-01-25T14:36:37.451Z,7.75
2018-01-25T14:39:08.694Z,6.50
2018-01-25T14:41:39.366Z,7.75
2018-01-25T14:44:10.359Z,5.25
2018-01-25T14:46:41.888Z,11.25
2018-01-25T14:49:12.618Z,9.50
2018-01-25T14:51:43.018Z,5.00
2018-01-25T14:54:13.583Z,8.75
2018-01-25T14:56:44.510Z,6.75
2018-01-25T14:59:15.854Z,6.25
2018-01-25T15:01:46.812Z,5.00
2018-01-25T15:07:06.823Z,6.00
2018-01-25T15:09:37.464Z,7.50
2018-01-25T15:12:09.750Z,5.00
2018-01-25T15:14:40.528Z,6.00
2018-01-25T15:17:11.688Z,6.00
2018-01-25T15:19:42.393Z,5.25
2018-01-25T15:22:20.386Z,5.00
2018-01-25T15:24:51.101Z,5.50
2018-01-25T15:27:25.919Z,6.00
2018-01-25T15:29:57.436Z,8.50
2018-01-25T15:32:30.688Z,8.00
2018-01-25T15:35:04.515Z,6.75
2018-01-25T15:37:35.656Z,9.25
2018-01-25T15:40:07.478Z,9.00
2018-01-25T15:42:38.240Z,5.00
2018-01-25T15:45:09.195Z,4.00
2018-01-25T15:47:40.936Z,4.50
2018-01-25T15:50:12.608Z,6.25
2018-01-25T15:52:44.998Z,6.00
2018-01-25T15:55:16.126Z,4.50
2018-01-25T15:57:48.518Z,6.00
2018-01-25T16:00:20.397Z,8.00
2018-01-25T16:02:59.117Z,6.75
2018-01-25T16:05:30.072Z,9.25
2018-01-25T16:08:07.969Z,6.50
2018-01-25T16:10:41.112Z,8.75
2018-01-25T16:13:11.794Z,8.25
2018-01-25T16:15:42.639Z,8.25
2018-01-25T16:18:21.396Z,8.00
2018-01-25T16:20:52.195Z,6.75
2018-01-25T16:23:22.829Z,7.25
2018-01-25T16:25:53.709Z,9.00
2018-01-25T16:31:09.586Z,15.50
2018-01-25T16:33:43.211Z,11.75
2018-01-25T16:36:15.487Z,9.00
2018-01-25T16:38:46.149Z,3.00
2018-01-25T16:41:17.283Z,4.25
2018-01-25T16:43:47.598Z,4.25
2018-01-25T16:46:18.495Z,4.75
2018-01-25T16:48:49.079Z,4.00
2018-01-25T16:51:20.016Z,4.00
2018-01-25T16:53:54.017Z,3.00
2018-01-25T16:56:25.220Z,2.00
2018-01-25T16:58:55.922Z,8.00
2018-01-25T17:01:27.827Z,10.75
2018-01-25T17:03:58.116Z,16.50
2018-01-25T17:06:29.586Z,10.00
2018-01-25T17:09:01.260Z,18.25
2018-01-25T17:11:32.847Z,10.50
2018-01-25T17:14:05.246Z,8.00
2018-01-25T17:16:37.397Z,8.50
2018-01-25T17:19:07.866Z,7.50
2018-01-25T17:21:43.714Z,5.00
2018-01-25T17:24:13.929Z,4.00
2018-01-25T17:26:44.196Z,5.00
2018-01-25T17:29:14.574Z,7.75
2018-01-25T17:31:44.990Z,9.25
2018-01-25T17:34:15.843Z,7.50
2018-01-25T17:36:55.228Z,6.50
2018-01-25T17:39:26.611Z,8.00
2018-01-25T17:41:57.439Z,8.00
2018-01-25T17:44:28.293Z,9.75
2018-01-25T17:46:59.763Z,22.50
2018-01-25T17:49:30.167Z,16.50
2018-01-25T17:52:03.726Z,10.50
2018-01-25T17:54:34.537Z,10.00
2018-01-25T17:57:05.528Z,8.50
2018-01-25T17:59:37.527Z,8.00
2018-01-25T18:02:12.551Z,11.25
2018-01-25T18:04:45.746Z,5.00
2018-01-25T18:07:41.652Z,7.00
2018-01-25T18:10:11.976Z,5.50
2018-01-25T18:12:44.098Z,4.00
2018-01-25T18:15:18.122Z,6.25
2018-01-25T18:17:48.957Z,9.25
2018-01-25T18:20:20.754Z,10.25
2018-01-25T18:22:52.116Z,11.75
2018-01-25T18:25:23.836Z,7.75
2018-01-25T18:27:55.578Z,7.25
2018-01-25T18:30:29.966Z,9.25
2018-01-25T18:33:02.529Z,4.00
2018-01-25T18:35:34.077Z,12.75
2018-01-25T18:38:05.688Z,20.00
2018-01-25T18:40:39.091Z,13.25
2018-01-25T18:43:10.578Z,8.25
2018-01-25T18:45:44.429Z,10.50
2018-01-25T18:48:15.134Z,7.75
2018-01-25T18:50:46.410Z,10.25
2018-01-25T18:53:16.992Z,16.75
2018-01-25T18:55:48.706Z,8.50
2018-01-25T18:58:19.134Z,9.75
2018-01-25T19:00:51.307Z,10.00
2018-01-25T19:03:22.670Z,14.50
2018-01-25T19:05:54.154Z,9.75
2018-01-25T19:08:40.908Z,7.00
2018-01-25T19:11:14.388Z,7.75
2018-01-25T19:13:45.185Z,10.00
2018-01-25T19:16:15.829Z,8.00
2018-01-25T19:18:46.599Z,11.50
2018-01-25T19:21:18.557Z,25.25
2018-01-25T19:23:49.119Z,17.75
2018-01-25T19:26:20.624Z,8.00
2018-01-25T19:28:51.448Z,8.75
2018-01-25T19:31:22.110Z,11.75
2018-01-25T19:33:53.240Z,26.75
2018-01-25T19:36:24.901Z,14.25
2018-01-25T19:39:03.009Z,17.25
2018-01-25T19:41:34.705Z,9.50
2018-01-25T19:44:07.425Z,8.25
2018-01-25T19:46:52.632Z,11.00
2018-01-25T19:52:28.599Z,6.25
2018-01-25T19:55:04.647Z,7.50
2018-01-25T19:57:36.750Z,4.50
2018-01-25T20:00:17.566Z,8.00
2018-01-25T20:02:48.532Z,10.00
2018-01-25T20:05:20.601Z,9.00
2018-01-25T20:08:23.019Z,10.50
2018-01-25T20:10:59.414Z,8.75
2018-01-25T20:13:32.061Z,8.25
2018-01-25T20:16:09.367Z,8.00
2018-01-25T20:18:40.626Z,9.50
2018-01-25T20:21:17.265Z,13.75
2018-01-25T20:23:50.308Z,9.50
2018-01-25T20:26:22.784Z,11.00
2018-01-25T20:28:54.471Z,12.75
2018-01-25T20:31:26.393Z,11.00
2018-01-25T20:33:57.239Z,11.00
2018-01-25T20:36:28.250Z,11.00
2018-01-25T20:39:03.774Z,16.75
2018-01-25T20:41:37.189Z,17.00
2018-01-25T20:44:09.147Z,17.50
2018-01-25T20:46:41.200Z,10.50
2018-01-25T20:49:12.089Z,16.50
2018-01-25T20:51:43.164Z,13.25
2018-01-25T20:54:14.578Z,17.00
2018-01-25T20:56:45.801Z,19.75
2018-01-25T20:59:17.511Z,17.00
2018-01-25T21:01:48.799Z,15.50
2018-01-25T21:04:20.208Z,15.75
2018-01-25T21:06:51.276Z,13.25
2018-01-25T21:09:23.059Z,14.75
2018-01-25T21:11:54.091Z,13.75
2018-01-25T21:14:25.771Z,14.50
2018-01-25T21:16:57.966Z,18.25
2018-01-25T21:19:29.817Z,14.50
2018-01-25T21:22:00.846Z,10.00
2018-01-25T21:24:32.427Z,14.00
2018-01-25T21:27:05.666Z,16.00
2018-01-25T21:29:37.658Z,14.50
2018-01-25T21:32:10.553Z,16.50
2018-01-25T21:34:42.607Z,14.75
2018-01-25T21:37:17.259Z,18.50
2018-01-25T21:39:48.589Z,13.50
2018-01-25T21:42:19.936Z,13.00
2018-01-25T21:44:51.892Z,12.50
2018-01-25T21:47:24.606Z,15.50
2018-01-25T21:49:56.139Z,15.00
2018-01-25T21:52:27.841Z,15.00
2018-01-25T21:55:22.781Z,14.25
2018-01-25T21:57:57.236Z,11.25
2018-01-25T22:00:28.781Z,14.75
2018-01-25T22:02:59.994Z,14.25
2018-01-25T22:05:30.876Z,17.25
2018-01-25T22:08:02.823Z,22.25
2018-01-25T22:10:34.627Z,14.00
2018-01-25T22:13:06.447Z,22.00
2018-01-25T22:15:38.355Z,21.00
2018-01-25T22:18:09.177Z,17.00
2018-01-25T22:20:45.236Z,20.50
2018-01-25T22:23:15.958Z,20.00
2018-01-25T22:25:46.625Z,19.75
2018-01-25T22:28:17.771Z,17.25
2018-01-25T22:30:48.801Z,21.00
2018-01-25T22:33:20.570Z,16.25
2018-01-25T22:35:51.478Z,20.50
2018-01-25T22:38:22.285Z,24.50
2018-01-25T22:40:53.512Z,23.75
2018-01-25T22:43:26.026Z,20.25
2018-01-25T22:45:58.703Z,19.25
2018-01-25T22:48:29.734Z,22.50
2018-01-25T22:51:00.797Z,26.25
2018-01-25T22:53:34.012Z,21.25
2018-01-25T22:56:06.222Z,22.75
2018-01-25T22:58:40.844Z,15.75
2018-01-25T23:01:14.553Z,17.50
2018-01-25T23:03:47.387Z,22.00
2018-01-25T23:06:21.192Z,16.50
2018-01-25T23:08:59.268Z,18.00
2018-01-25T23:11:30.217Z,13.75
2018-01-25T23:14:01.207Z,22.00
2018-01-25T23:16:32.382Z,17.50
2018-01-25T23:19:04.075Z,20.50
2018-01-25T23:21:35.896Z,20.50
2018-01-25T23:24:11.031Z,24.75
2018-01-25T23:26:42.074Z,21.50
2018-01-25T23:29:17.135Z,21.50
2018-01-25T23:31:48.602Z,18.75
2018-01-25T23:34:19.562Z,19.25
2018-01-25T23:36:51.454Z,17.00
2018-01-25T23:39:24.734Z,19.50
2018-01-25T23:42:00.294Z,22.50
2018-01-25T23:44:34.529Z,21.50
2018-01-25T23:47:13.322Z,19.75
2018-01-25T23:49:45.605Z,25.75
2018-01-25T23:52:16.844Z,22.50
2018-01-25T23:54:48.477Z,21.50
2018-01-25T23:57:19.946Z,23.00
2018-01-25T23:59:52.044Z,20.50
